»·PEaware :: WAT397 KPMD-KSBA

WAT397 :: KPMD-KSBA

FLIGHT INFORMATION

Flight Status: Arrived
Operator:
Walker Air Transport
More flights by this operator :: More flights under this callsign
Pilot: Ricardo M. (29263)
Aircraft: BOEING 727-200
(B722)
More flights by this aircraft type
Origin: KPMD Palmdale AF Plant 42
United States
Destination: KSBA Santa Barbara Mun
United States
More flights between these airports :: More routes between these airports
Route: PMD V12 RZS
File this flight plan on PilotEdge
Remarks:
Altitude:
(Current/Filed)
12,000ft
Speed:
(Current/Filed)
300kts
Departed: 10-Apr-21 09:53 AM
Arrived: 10-Apr-21 10:25 AM
Distance/Time
Traveled:
88nm/0:32
Distance/Time
To Go:
Arrived

Flight Plot

Page will automatically refresh every two minutes.


Map Options




Map Legend


Flown Route
Filed Route
Departure Airport
Arrival Airport
Navaid (VOR, NDB)
Fix

Horizontal Profiles

Position Reports

Time Latitude Longitude Heading Altitude Ground
Speed
10-Apr-21 09:41 34.636497 -118.096151 187 2518ft 0kts
10-Apr-21 09:42 34.636497 -118.096151 187 2518ft 0kts
10-Apr-21 09:43 34.636497 -118.096151 187 2518ft 0kts
10-Apr-21 09:44 34.636497 -118.096151 187 2518ft 0kts
10-Apr-21 09:45 34.636497 -118.096151 187 2518ft 0kts
10-Apr-21 09:46 34.636497 -118.096151 187 2518ft 0kts
10-Apr-21 09:47 34.636497 -118.096151 187 2518ft 0kts
10-Apr-21 09:48 34.636497 -118.096151 187 2518ft 0kts
10-Apr-21 09:49 34.636497 -118.096151 187 2518ft 0kts
10-Apr-21 09:50 34.636497 -118.096151 187 2518ft 0kts
10-Apr-21 09:51 34.634445 -118.095422 90 2523ft 21kts
10-Apr-21 09:52 34.635194 -118.081461 86 2507ft 57kts
10-Apr-21 09:53 34.635588 -118.074210 89 2506ft 8kts
10-Apr-21 09:54 34.632677 -118.075061 269 2513ft 4kts
10-Apr-21 09:55 34.630596 -118.114655 267 3285ft 188kts
10-Apr-21 09:56 34.621239 -118.181480 255 6600ft 215kts
10-Apr-21 09:57 34.622525 -118.253795 266 9898ft 221kts
10-Apr-21 09:58 34.616111 -118.332297 265 11983ft 273kts
10-Apr-21 09:59 34.609116 -118.434288 266 12021ft 324kts
10-Apr-21 10:00 34.602020 -118.549130 266 12050ft 356kts
10-Apr-21 10:01 34.594557 -118.672363 266 12042ft 376kts
10-Apr-21 10:02 34.586484 -118.800734 265 12039ft 383kts
10-Apr-21 10:03 34.571053 -118.928198 258 12040ft 381kts
10-Apr-21 10:04 34.552563 -119.053905 263 12039ft 375kts
10-Apr-21 10:05 34.545301 -119.177054 268 12036ft 355kts
10-Apr-21 10:06 34.543616 -119.285074 269 11714ft 284kts
10-Apr-21 10:07 34.539391 -119.378279 266 9784ft 275kts
10-Apr-21 10:08 34.531957 -119.466963 264 9031ft 250kts
10-Apr-21 10:09 34.524884 -119.550217 265 8139ft 257kts
10-Apr-21 10:10 34.519020 -119.636748 266 6487ft 255kts
10-Apr-21 10:11 34.508396 -119.713587 223 6009ft 207kts
10-Apr-21 10:12 34.452714 -119.710495 171 6065ft 223kts
10-Apr-21 10:13 34.390448 -119.691099 137 6040ft 236kts
10-Apr-21 10:14 34.356317 -119.626131 121 5823ft 227kts
10-Apr-21 10:15 34.310149 -119.578388 153 5117ft 221kts
10-Apr-21 10:16 34.278653 -119.525980 57 4267ft 216kts
10-Apr-21 10:17 34.319975 -119.538302 290 3232ft 203kts
10-Apr-21 10:18 34.338590 -119.598081 292 2185ft 167kts
10-Apr-21 10:20 34.356576 -119.646189 295 2154ft 163kts
10-Apr-21 10:21 34.378298 -119.697042 297 2143ft 173kts
10-Apr-21 10:22 34.401068 -119.743010 307 1766ft 137kts
10-Apr-21 10:23 34.423371 -119.777587 304 1125ft 133kts
10-Apr-21 10:24 34.428109 -119.818810 270 351ft 119kts
10-Apr-21 10:25 34.427519 -119.853170 260 20ft 30kts
10-Apr-21 10:26 34.426781 -119.853577 145 20ft 0kts
10-Apr-21 10:27 34.426423 -119.851860 90 19ft 24kts
10-Apr-21 10:28 34.426682 -119.839232 86 21ft 31kts
10-Apr-21 10:29 34.426005 -119.837546 95 20ft 0kts
10-Apr-21 10:30 34.426003 -119.837523 94 20ft 0kts
10-Apr-21 10:31 34.426003 -119.837523 94 20ft 0kts
10-Apr-21 10:32 34.426003 -119.837523 94 20ft 0kts
10-Apr-21 10:33 34.426003 -119.837523 94 20ft 0kts
10-Apr-21 10:34 34.426003 -119.837523 94 20ft 0kts
10-Apr-21 10:35 34.426003 -119.837523 94 20ft 0kts
10-Apr-21 10:36 34.426003 -119.837523 94 20ft 0kts
10-Apr-21 10:37 34.426003 -119.837523 94 20ft 0kts

Navigation Log

Ident Type
Flight plan parsing failed, navigation log unavailable